sensor_id;sensor_type;location;lat;lon;timestamp;pressure;altitude;pressure_sealevel;temperature;humidity
55032;BME280;40928;51.076;7.950;2024-01-07T00:00:27;96728.19;;;0.93;100.00
55032;BME280;40928;51.076;7.950;2024-01-07T00:02:53;96719.50;;;0.92;100.00
55032;BME280;40928;51.076;7.950;2024-01-07T00:05:18;96722.56;;;0.96;100.00
55032;BME280;40928;51.076;7.950;2024-01-07T00:07:44;96721.56;;;0.97;100.00
55032;BME280;40928;51.076;7.950;2024-01-07T00:10:10;96725.34;;;0.94;100.00
55032;BME280;40928;51.076;7.950;2024-01-07T00:12:35;96723.47;;;0.88;100.00
55032;BME280;40928;51.076;7.950;2024-01-07T00:15:01;96725.13;;;0.89;100.00
55032;BME280;40928;51.076;7.950;2024-01-07T00:17:27;96728.38;;;0.91;100.00
55032;BME280;40928;51.076;7.950;2024-01-07T00:19:53;96725.75;;;0.91;100.00
55032;BME280;40928;51.076;7.950;2024-01-07T00:22:19;96732.63;;;0.92;100.00
55032;BME280;40928;51.076;7.950;2024-01-07T00:24:45;96733.25;;;0.94;100.00
55032;BME280;40928;51.076;7.950;2024-01-07T00:27:10;96729.63;;;0.95;100.00
55032;BME280;40928;51.076;7.950;2024-01-07T00:29:36;96731.63;;;0.93;100.00
55032;BME280;40928;51.076;7.950;2024-01-07T00:32:02;96736.50;;;0.96;100.00
55032;BME280;40928;51.076;7.950;2024-01-07T00:34:28;96738.50;;;0.94;100.00
55032;BME280;40928;51.076;7.950;2024-01-07T00:36:53;96738.88;;;0.91;100.00
55032;BME280;40928;51.076;7.950;2024-01-07T00:39:20;96739.88;;;0.90;100.00
55032;BME280;40928;51.076;7.950;2024-01-07T00:41:46;96743.50;;;0.89;100.00
55032;BME280;40928;51.076;7.950;2024-01-07T00:44:11;96745.78;;;0.92;100.00
55032;BME280;40928;51.076;7.950;2024-01-07T00:46:38;96746.78;;;0.91;100.00
55032;BME280;40928;51.076;7.950;2024-01-07T00:49:03;96753.59;;;0.85;100.00
55032;BME280;40928;51.076;7.950;2024-01-07T00:51:29;96748.78;;;0.89;100.00
55032;BME280;40928;51.076;7.950;2024-01-07T00:53:55;96746.78;;;0.91;100.00
55032;BME280;40928;51.076;7.950;2024-01-07T00:56:21;96759.09;;;0.90;100.00
55032;BME280;40928;51.076;7.950;2024-01-07T00:58:46;96757.66;;;0.88;100.00
55032;BME280;40928;51.076;7.950;2024-01-07T01:01:12;96763.72;;;0.88;100.00
55032;BME280;40928;51.076;7.950;2024-01-07T01:03:38;96763.34;;;0.91;100.00
55032;BME280;40928;51.076;7.950;2024-01-07T01:06:04;96763.19;;;0.93;100.00
55032;BME280;40928;51.076;7.950;2024-01-07T01:08:30;96773.69;;;0.93;100.00
55032;BME280;40928;51.076;7.950;2024-01-07T01:10:55;96777.78;;;0.96;100.00
55032;BME280;40928;51.076;7.950;2024-01-07T01:13:21;96779.97;;;0.92;100.00
55032;BME280;40928;51.076;7.950;2024-01-07T01:15:47;96777.69;;;0.89;100.00
55032;BME280;40928;51.076;7.950;2024-01-07T01:18:12;96782.75;;;0.90;100.00
55032;BME280;40928;51.076;7.950;2024-01-07T01:20:38;96783.19;;;0.94;100.00
55032;BME280;40928;51.076;7.950;2024-01-07T01:23:04;96785.81;;;0.94;100.00
55032;BME280;40928;51.076;7.950;2024-01-07T01:25:29;96792.72;;;0.95;100.00
55032;BME280;40928;51.076;7.950;2024-01-07T01:27:56;96784.31;;;1.00;100.00
55032;BME280;40928;51.076;7.950;2024-01-07T01:30:22;96796.34;;;0.94;100.00
55032;BME280;40928;51.076;7.950;2024-01-07T01:32:47;96802.50;;;0.86;100.00
55032;BME280;40928;51.076;7.950;2024-01-07T01:35:13;96795.19;;;0.82;100.00
55032;BME280;40928;51.076;7.950;2024-01-07T01:37:39;96801.81;;;0.78;100.00
55032;BME280;40928;51.076;7.950;2024-01-07T01:40:06;96800.78;;;0.79;100.00
55032;BME280;40928;51.076;7.950;2024-01-07T01:42:31;96796.63;;;0.69;100.00
55032;BME280;40928;51.076;7.950;2024-01-07T01:44:58;96799.81;;;0.65;100.00
55032;BME280;40928;51.076;7.950;2024-01-07T01:47:28;96807.50;;;0.66;100.00
55032;BME280;40928;51.076;7.950;2024-01-07T01:49:54;96801.25;;;0.67;100.00
55032;BME280;40928;51.076;7.950;2024-01-07T01:52:20;96799.81;;;0.65;100.00
55032;BME280;40928;51.076;7.950;2024-01-07T01:54:47;96801.59;;;0.64;100.00
55032;BME280;40928;51.076;7.950;2024-01-07T01:57:15;96797.75;;;0.60;100.00
55032;BME280;40928;51.076;7.950;2024-01-07T01:59:42;96798.09;;;0.57;100.00
55032;BME280;40928;51.076;7.950;2024-01-07T02:02:08;96799.72;;;0.58;100.00
55032;BME280;40928;51.076;7.950;2024-01-07T02:04:34;96799.72;;;0.58;100.00
55032;BME280;40928;51.076;7.950;2024-01-07T02:07:00;96802.50;;;0.56;100.00
55032;BME280;40928;51.076;7.950;2024-01-07T02:09:26;96798.09;;;0.57;100.00
55032;BME280;40928;51.076;7.950;2024-01-07T02:12:04;96812.56;;;0.53;100.00
55032;BME280;40928;51.076;7.950;2024-01-07T02:14:30;96807.59;;;0.58;100.00
55032;BME280;40928;51.076;7.950;2024-01-07T02:16:56;96811.69;;;0.60;100.00
55032;BME280;40928;51.076;7.950;2024-01-07T02:19:22;96813.13;;;0.63;100.00
55032;BME280;40928;51.076;7.950;2024-01-07T02:21:50;96816.22;;;0.67;100.00
55032;BME280;40928;51.076;7.950;2024-01-07T02:24:16;96825.53;;;0.69;100.00
55032;BME280;40928;51.076;7.950;2024-01-07T02:26:42;96816.88;;;0.69;100.00
55032;BME280;40928;51.076;7.950;2024-01-07T02:29:10;96815.66;;;0.71;100.00
55032;BME280;40928;51.076;7.950;2024-01-07T02:31:36;96814.47;;;0.74;100.00
55032;BME280;40928;51.076;7.950;2024-01-07T02:34:03;96816.94;;;0.75;100.00
55032;BME280;40928;51.076;7.950;2024-01-07T02:36:28;96820.22;;;0.78;100.00
55032;BME280;40928;51.076;7.950;2024-01-07T02:38:54;96820.56;;;0.74;100.00
55032;BME280;40928;51.076;7.950;2024-01-07T02:41:20;96826.47;;;0.77;100.00
55032;BME280;40928;51.076;7.950;2024-01-07T02:43:46;96823.44;;;0.80;100.00
55032;BME280;40928;51.076;7.950;2024-01-07T02:46:13;96823.09;;;0.83;100.00
55032;BME280;40928;51.076;7.950;2024-01-07T02:48:39;96826.09;;;0.80;100.00
55032;BME280;40928;51.076;7.950;2024-01-07T02:51:07;96828.81;;;0.86;100.00
55032;BME280;40928;51.076;7.950;2024-01-07T02:53:34;96831.91;;;0.90;100.00
55032;BME280;40928;51.076;7.950;2024-01-07T02:56:01;96824.38;;;0.87;100.00
55032;BME280;40928;51.076;7.950;2024-01-07T02:58:27;96824.72;;;0.84;100.00
55032;BME280;40928;51.076;7.950;2024-01-07T03:00:55;96824.09;;;0.82;100.00
55032;BME280;40928;51.076;7.950;2024-01-07T03:03:20;96827.72;;;0.81;100.00
55032;BME280;40928;51.076;7.950;2024-01-07T03:05:46;96831.97;;;0.82;100.00
55032;BME280;40928;51.076;7.950;2024-01-07T03:08:12;96825.28;;;0.79;100.00
55032;BME280;40928;51.076;7.950;2024-01-07T03:10:38;96830.44;;;0.87;100.00
55032;BME280;40928;51.076;7.950;2024-01-07T03:13:04;96836.53;;;0.88;100.00
55032;BME280;40928;51.076;7.950;2024-01-07T03:15:29;96832.44;;;0.85;100.00
55032;BME280;40928;51.076;7.950;2024-01-07T03:17:56;96835.59;;;0.81;100.00
55032;BME280;40928;51.076;7.950;2024-01-07T03:20:22;96836.59;;;0.80;100.00
55032;BME280;40928;51.076;7.950;2024-01-07T03:22:48;96839.22;;;0.80;100.00
55032;BME280;40928;51.076;7.950;2024-01-07T03:25:14;96845.03;;;0.75;100.00
55032;BME280;40928;51.076;7.950;2024-01-07T03:27:39;96854.66;;;0.83;100.00
55032;BME280;40928;51.076;7.950;2024-01-07T03:30:06;96859.44;;;0.79;100.00
55032;BME280;40928;51.076;7.950;2024-01-07T03:32:32;96858.63;;;0.79;100.00
55032;BME280;40928;51.076;7.950;2024-01-07T03:35:02;96858.16;;;0.75;100.00
55032;BME280;40928;51.076;7.950;2024-01-07T03:37:28;96865.25;;;0.74;100.00
55032;BME280;40928;51.076;7.950;2024-01-07T03:39:53;96858.38;;;0.73;100.00
55032;BME280;40928;51.076;7.950;2024-01-07T03:42:19;96853.28;;;0.72;100.00
55032;BME280;40928;51.076;7.950;2024-01-07T03:44:45;96857.91;;;0.70;100.00
55032;BME280;40928;51.076;7.950;2024-01-07T03:47:11;96859.34;;;0.72;100.00
55032;BME280;40928;51.076;7.950;2024-01-07T03:49:37;96867.16;;;0.66;100.00
55032;BME280;40928;51.076;7.950;2024-01-07T03:52:05;96866.31;;;0.65;100.00
55032;BME280;40928;51.076;7.950;2024-01-07T03:54:30;96873.22;;;0.66;100.00
55032;BME280;40928;51.076;7.950;2024-01-07T03:56:56;96868.59;;;0.68;100.00
55032;BME280;40928;51.076;7.950;2024-01-07T03:59:22;96870.03;;;0.56;100.00
55032;BME280;40928;51.076;7.950;2024-01-07T04:01:48;96878.19;;;0.61;100.00
55032;BME280;40928;51.076;7.950;2024-01-07T04:04:14;96870.66;;;0.58;100.00
55032;BME280;40928;51.076;7.950;2024-01-07T04:06:39;96883.47;;;0.61;100.00
55032;BME280;40928;51.076;7.950;2024-01-07T04:09:05;96883.47;;;0.61;100.00
55032;BME280;40928;51.076;7.950;2024-01-07T04:11:31;96891.94;;;0.63;100.00
55032;BME280;40928;51.076;7.950;2024-01-07T04:13:57;96886.25;;;0.59;100.00
55032;BME280;40928;51.076;7.950;2024-01-07T04:16:23;96891.69;;;0.58;100.00
55032;BME280;40928;51.076;7.950;2024-01-07T04:18:48;96884.81;;;0.57;100.00
55032;BME280;40928;51.076;7.950;2024-01-07T04:21:14;96895.66;;;0.54;100.00
55032;BME280;40928;51.076;7.950;2024-01-07T04:23:40;96891.25;;;0.54;100.00
55032;BME280;40928;51.076;7.950;2024-01-07T04:26:09;96894.03;;;0.53;100.00
55032;BME280;40928;51.076;7.950;2024-01-07T04:28:35;96891.84;;;0.41;100.00
55032;BME280;40928;51.076;7.950;2024-01-07T04:31:01;96892.38;;;0.37;100.00
55032;BME280;40928;51.076;7.950;2024-01-07T04:33:27;96892.81;;;0.40;100.00
55032;BME280;40928;51.076;7.950;2024-01-07T04:35:52;96898.09;;;0.40;100.00
55032;BME280;40928;51.076;7.950;2024-01-07T04:38:23;96896.44;;;0.39;100.00
55032;BME280;40928;51.076;7.950;2024-01-07T04:40:49;96896.00;;;0.36;100.00
55032;BME280;40928;51.076;7.950;2024-01-07T04:43:14;96901.41;;;0.34;100.00
55032;BME280;40928;51.076;7.950;2024-01-07T04:45:40;96890.25;;;0.32;100.00
55032;BME280;40928;51.076;7.950;2024-01-07T04:48:06;96907.03;;;0.31;100.00
55032;BME280;40928;51.076;7.950;2024-01-07T04:50:32;96904.75;;;0.28;100.00
55032;BME280;40928;51.076;7.950;2024-01-07T04:52:58;96901.94;;;0.29;100.00
55032;BME280;40928;51.076;7.950;2024-01-07T04:55:23;96912.16;;;0.24;100.00
55032;BME280;40928;51.076;7.950;2024-01-07T04:57:49;96913.16;;;0.23;100.00
55032;BME280;40928;51.076;7.950;2024-01-07T05:00:15;96907.72;;;0.25;100.00
55032;BME280;40928;51.076;7.950;2024-01-07T05:02:42;96912.44;;;0.29;100.00
55032;BME280;40928;51.076;7.950;2024-01-07T05:05:08;96903.75;;;0.29;100.00
55032;BME280;40928;51.076;7.950;2024-01-07T05:07:34;96914.72;;;0.33;100.00
55032;BME280;40928;51.076;7.950;2024-01-07T05:10:00;96917.00;;;0.36;100.00
55032;BME280;40928;51.076;7.950;2024-01-07T05:12:26;96923.72;;;0.38;100.00
55032;BME280;40928;51.076;7.950;2024-01-07T05:14:52;96921.09;;;0.38;100.00
55032;BME280;40928;51.076;7.950;2024-01-07T05:17:18;96924.34;;;0.40;100.00
55032;BME280;40928;51.076;7.950;2024-01-07T05:19:43;96930.91;;;0.44;100.00
55032;BME280;40928;51.076;7.950;2024-01-07T05:22:09;96926.00;;;0.41;100.00
55032;BME280;40928;51.076;7.950;2024-01-07T05:24:38;96928.31;;;0.36;100.00
55032;BME280;40928;51.076;7.950;2024-01-07T05:27:04;96939.81;;;0.35;100.00
55032;BME280;40928;51.076;7.950;2024-01-07T05:29:31;96946.06;;;0.34;100.00
55032;BME280;40928;51.076;7.950;2024-01-07T05:31:59;96949.44;;;0.43;100.00
55032;BME280;40928;51.076;7.950;2024-01-07T05:34:28;96948.00;;;0.40;100.00
55032;BME280;40928;51.076;7.950;2024-01-07T05:36:54;96946.16;;;0.41;100.00
55032;BME280;40928;51.076;7.950;2024-01-07T05:39:20;96948.97;;;0.39;100.00
55032;BME280;40928;51.076;7.950;2024-01-07T05:41:45;96955.03;;;0.40;100.00
55032;BME280;40928;51.076;7.950;2024-01-07T05:44:12;96951.25;;;0.42;100.00
55032;BME280;40928;51.076;7.950;2024-01-07T05:46:39;96949.28;;;0.44;100.00
55032;BME280;40928;51.076;7.950;2024-01-07T05:49:08;96956.53;;;0.42;100.00
55032;BME280;40928;51.076;7.950;2024-01-07T05:51:38;96949.78;;;0.40;100.00
55032;BME280;40928;51.076;7.950;2024-01-07T05:54:04;96958.50;;;0.40;100.00
55032;BME280;40928;51.076;7.950;2024-01-07T05:56:30;96960.13;;;0.41;100.00
55032;BME280;40928;51.076;7.950;2024-01-07T05:58:56;96961.13;;;0.40;100.00
55032;BME280;40928;51.076;7.950;2024-01-07T06:01:22;96967.56;;;0.38;100.00
55032;BME280;40928;51.076;7.950;2024-01-07T06:03:48;96971.63;;;0.40;100.00
55032;BME280;40928;51.076;7.950;2024-01-07T06:06:14;96972.94;;;0.44;100.00
55032;BME280;40928;51.076;7.950;2024-01-07T06:08:43;96973.91;;;0.43;100.00
55032;BME280;40928;51.076;7.950;2024-01-07T06:11:09;96960.56;;;0.30;100.00
55032;BME280;40928;51.076;7.950;2024-01-07T06:13:37;96987.84;;;0.44;100.00
55032;BME280;40928;51.076;7.950;2024-01-07T06:16:03;96986.88;;;0.45;100.00
55032;BME280;40928;51.076;7.950;2024-01-07T06:18:29;96989.84;;;0.42;100.00
55032;BME280;40928;51.076;7.950;2024-01-07T06:20:55;96991.81;;;0.40;100.00
55032;BME280;40928;51.076;7.950;2024-01-07T06:23:20;96993.81;;;0.38;100.00
55032;BME280;40928;51.076;7.950;2024-01-07T06:25:46;96998.97;;;0.31;100.00
55032;BME280;40928;51.076;7.950;2024-01-07T06:28:11;97011.91;;;0.33;100.00
55032;BME280;40928;51.076;7.950;2024-01-07T06:30:37;97016.00;;;0.35;100.00
55032;BME280;40928;51.076;7.950;2024-01-07T06:33:04;97021.88;;;0.37;100.00
55032;BME280;40928;51.076;7.950;2024-01-07T06:35:30;97012.38;;;0.36;100.00
55032;BME280;40928;51.076;7.950;2024-01-07T06:37:56;97023.84;;;0.43;100.00
55032;BME280;40928;51.076;7.950;2024-01-07T06:40:22;97029.25;;;0.42;100.00
55032;BME280;40928;51.076;7.950;2024-01-07T06:42:48;97033.38;;;0.36;100.00
55032;BME280;40928;51.076;7.950;2024-01-07T06:45:15;97040.28;;;0.37;100.00
55032;BME280;40928;51.076;7.950;2024-01-07T06:47:41;97036.66;;;0.38;100.00
55032;BME280;40928;51.076;7.950;2024-01-07T06:50:07;97042.09;;;0.37;100.00
55032;BME280;40928;51.076;7.950;2024-01-07T06:52:33;97040.28;;;0.37;100.00
55032;BME280;40928;51.076;7.950;2024-01-07T06:54:58;97044.72;;;0.37;100.00
55032;BME280;40928;51.076;7.950;2024-01-07T06:57:24;97034.22;;;0.37;100.00
55032;BME280;40928;51.076;7.950;2024-01-07T06:59:50;97041.44;;;0.35;100.00
55032;BME280;40928;51.076;7.950;2024-01-07T07:02:15;97042.09;;;0.37;100.00
55032;BME280;40928;51.076;7.950;2024-01-07T07:04:41;97052.88;;;0.42;100.00
55032;BME280;40928;51.076;7.950;2024-01-07T07:07:07;97046.97;;;0.40;100.00
55032;BME280;40928;51.076;7.950;2024-01-07T07:09:32;97055.69;;;0.40;100.00
55032;BME280;40928;51.076;7.950;2024-01-07T07:12:00;97062.75;;;0.40;100.00
55032;BME280;40928;51.076;7.950;2024-01-07T07:14:25;97070.16;;;0.36;100.00
55032;BME280;40928;51.076;7.950;2024-01-07T07:16:51;97077.53;;;0.41;100.00
55032;BME280;40928;51.076;7.950;2024-01-07T07:19:17;97077.38;;;0.42;100.00
55032;BME280;40928;51.076;7.950;2024-01-07T07:21:43;97084.38;;;0.50;100.00
55032;BME280;40928;51.076;7.950;2024-01-07T07:24:09;97086.69;;;0.45;100.00
55032;BME280;40928;51.076;7.950;2024-01-07T07:26:36;97087.22;;;0.40;100.00
55032;BME280;40928;51.076;7.950;2024-01-07T07:29:07;97086.38;;;0.40;100.00
55032;BME280;40928;51.076;7.950;2024-01-07T07:31:35;97094.47;;;0.38;100.00
55032;BME280;40928;51.076;7.950;2024-01-07T07:34:09;97104.31;;;0.36;100.00
55032;BME280;40928;51.076;7.950;2024-01-07T07:36:35;97101.00;;;0.42;100.00
55032;BME280;40928;51.076;7.950;2024-01-07T07:39:01;97103.16;;;0.39;100.00
55032;BME280;40928;51.076;7.950;2024-01-07T07:41:26;97105.94;;;0.37;100.00
55032;BME280;40928;51.076;7.950;2024-01-07T07:43:52;97106.78;;;0.38;100.00
55032;BME280;40928;51.076;7.950;2024-01-07T07:46:18;97115.81;;;0.35;100.00
55032;BME280;40928;51.076;7.950;2024-01-07T07:48:43;97121.41;;;0.32;100.00
55032;BME280;40928;51.076;7.950;2024-01-07T07:51:09;97107.19;;;0.18;100.00
55032;BME280;40928;51.076;7.950;2024-01-07T07:53:38;97114.56;;;0.23;100.00
55032;BME280;40928;51.076;7.950;2024-01-07T07:56:04;97119.81;;;0.23;100.00
55032;BME280;40928;51.076;7.950;2024-01-07T07:58:30;97124.53;;;0.27;100.00
55032;BME280;40928;51.076;7.950;2024-01-07T08:00:57;97127.03;;;0.29;100.00
55032;BME280;40928;51.076;7.950;2024-01-07T08:03:23;97133.25;;;0.28;100.00
55032;BME280;40928;51.076;7.950;2024-01-07T08:05:49;97135.88;;;0.28;100.00
55032;BME280;40928;51.076;7.950;2024-01-07T08:08:15;97141.13;;;0.28;100.00
55032;BME280;40928;51.076;7.950;2024-01-07T08:10:44;97147.53;;;0.25;100.00
55032;BME280;40928;51.076;7.950;2024-01-07T08:13:10;97150.66;;;0.29;100.00
55032;BME280;40928;51.076;7.950;2024-01-07T08:15:35;97157.19;;;0.33;100.00
55032;BME280;40928;51.076;7.950;2024-01-07T08:18:03;97154.94;;;0.30;100.00
55032;BME280;40928;51.076;7.950;2024-01-07T08:20:29;97164.47;;;0.23;100.00
55032;BME280;40928;51.076;7.950;2024-01-07T08:22:55;97172.38;;;0.14;100.00
55032;BME280;40928;51.076;7.950;2024-01-07T08:25:20;97174.63;;;0.18;100.00
55032;BME280;40928;51.076;7.950;2024-01-07T08:27:46;97177.59;;;0.23;100.00
55032;BME280;40928;51.076;7.950;2024-01-07T08:30:12;97172.84;;;0.18;100.00
55032;BME280;40928;51.076;7.950;2024-01-07T08:32:40;97171.53;;;0.14;100.00
55032;BME280;40928;51.076;7.950;2024-01-07T08:35:07;97180.53;;;0.20;100.00
55032;BME280;40928;51.076;7.950;2024-01-07T08:37:33;97182.19;;;0.21;100.00
55032;BME280;40928;51.076;7.950;2024-01-07T08:39:59;97190.75;;;0.14;100.00
55032;BME280;40928;51.076;7.950;2024-01-07T08:42:26;97199.25;;;0.17;100.00
55032;BME280;40928;51.076;7.950;2024-01-07T08:44:52;97196.31;;;0.20;100.00
55032;BME280;40928;51.076;7.950;2024-01-07T08:47:17;97187.44;;;0.21;100.00
55032;BME280;40928;51.076;7.950;2024-01-07T08:49:43;97202.22;;;0.22;100.00
55032;BME280;40928;51.076;7.950;2024-01-07T08:52:09;97201.88;;;0.25;100.00
55032;BME280;40928;51.076;7.950;2024-01-07T08:54:34;97203.66;;;0.24;100.00
55032;BME280;40928;51.076;7.950;2024-01-07T08:57:00;97202.03;;;0.32;100.00
55032;BME280;40928;51.076;7.950;2024-01-07T08:59:26;97217.31;;;0.20;100.00
55032;BME280;40928;51.076;7.950;2024-01-07T09:01:51;97209.47;;;0.11;100.00
55032;BME280;40928;51.076;7.950;2024-01-07T09:04:17;97220.31;;;0.08;100.00
55032;BME280;40928;51.076;7.950;2024-01-07T09:06:44;97218.34;;;0.02;100.00
55032;BME280;40928;51.076;7.950;2024-01-07T09:09:10;97217.81;;;0.15;100.00
55032;BME280;40928;51.076;7.950;2024-01-07T09:11:36;97231.78;;;0.16;100.00
55032;BME280;40928;51.076;7.950;2024-01-07T09:14:02;97229.34;;;0.06;100.00
55032;BME280;40928;51.076;7.950;2024-01-07T09:16:29;97233.75;;;0.05;100.00
55032;BME280;40928;51.076;7.950;2024-01-07T09:18:55;97241.97;;;0.02;100.00
55032;BME280;40928;51.076;7.950;2024-01-07T09:21:21;97250.34;;;0.06;100.00
55032;BME280;40928;51.076;7.950;2024-01-07T09:23:51;97252.97;;;0.06;100.00
55032;BME280;40928;51.076;7.950;2024-01-07T09:26:16;97252.47;;;0.02;100.00
55032;BME280;40928;51.076;7.950;2024-01-07T09:28:43;97256.59;;;0.05;100.00
55032;BME280;40928;51.076;7.950;2024-01-07T09:31:09;97269.38;;;-0.01;100.00
55032;BME280;40928;51.076;7.950;2024-01-07T09:33:36;97260.84;;;-0.19;100.00
55032;BME280;40928;51.076;7.950;2024-01-07T09:36:01;97263.81;;;-0.31;100.00
55032;BME280;40928;51.076;7.950;2024-01-07T09:38:27;97271.84;;;-0.32;100.00
55032;BME280;40928;51.076;7.950;2024-01-07T09:40:53;97266.09;;;-0.27;100.00
55032;BME280;40928;51.076;7.950;2024-01-07T09:43:19;97263.97;;;-0.24;100.00
55032;BME280;40928;51.076;7.950;2024-01-07T09:45:47;97273.16;;;-0.20;100.00
55032;BME280;40928;51.076;7.950;2024-01-07T09:48:14;97277.75;;;-0.22;100.00
55032;BME280;40928;51.076;7.950;2024-01-07T09:50:40;97269.06;;;-0.14;100.00
55032;BME280;40928;51.076;7.950;2024-01-07T09:53:07;97274.13;;;-0.12;100.00
55032;BME280;40928;51.076;7.950;2024-01-07T09:55:57;97282.53;;;-0.09;100.00
55032;BME280;40928;51.076;7.950;2024-01-07T09:58:26;97273.81;;;-0.09;100.00
55032;BME280;40928;51.076;7.950;2024-01-07T10:00:55;97279.38;;;-0.12;100.00
55032;BME280;40928;51.076;7.950;2024-01-07T10:03:20;97274.78;;;-0.10;100.00
55032;BME280;40928;51.076;7.950;2024-01-07T10:05:46;97278.09;;;-0.17;100.00
55032;BME280;40928;51.076;7.950;2024-01-07T10:08:12;97284.31;;;-0.09;100.00
55032;BME280;40928;51.076;7.950;2024-01-07T10:10:38;97290.72;;;-0.12;100.00
55032;BME280;40928;51.076;7.950;2024-01-07T10:13:06;97289.75;;;-0.11;100.00
55032;BME280;40928;51.076;7.950;2024-01-07T10:15:34;97292.81;;;-0.16;100.00
55032;BME280;40928;51.076;7.950;2024-01-07T10:18:06;97283.00;;;-0.13;100.00
55032;BME280;40928;51.076;7.950;2024-01-07T10:20:33;97285.28;;;-0.10;100.00
55032;BME280;40928;51.076;7.950;2024-01-07T10:23:01;97287.59;;;-0.07;100.00
55032;BME280;40928;51.076;7.950;2024-01-07T10:25:30;97287.56;;;-0.16;100.00
55032;BME280;40928;51.076;7.950;2024-01-07T10:28:02;97292.03;;;-0.16;100.00
55032;BME280;40928;51.076;7.950;2024-01-07T10:30:28;97287.75;;;-0.17;100.00
55032;BME280;40928;51.076;7.950;2024-01-07T10:32:58;97289.56;;;-0.18;100.00
55032;BME280;40928;51.076;7.950;2024-01-07T10:35:28;97284.31;;;-0.18;100.00
55032;BME280;40928;51.076;7.950;2024-01-07T10:37:55;97273.00;;;-0.18;100.00
55032;BME280;40928;51.076;7.950;2024-01-07T10:40:21;97275.44;;;-0.25;100.00
55032;BME280;40928;51.076;7.950;2024-01-07T10:42:48;97278.91;;;-0.24;100.00
55032;BME280;40928;51.076;7.950;2024-01-07T10:45:15;97272.50;;;-0.22;100.00
55032;BME280;40928;51.076;7.950;2024-01-07T10:47:40;97283.81;;;-0.21;100.00
55032;BME280;40928;51.076;7.950;2024-01-07T10:50:08;97284.94;;;-0.16;100.00
55032;BME280;40928;51.076;7.950;2024-01-07T10:52:39;97289.06;;;-0.13;100.00
55032;BME280;40928;51.076;7.950;2024-01-07T10:55:09;97298.91;;;-0.15;100.00
55032;BME280;40928;51.076;7.950;2024-01-07T11:00:07;97273.66;;;-0.33;100.00
55032;BME280;40928;51.076;7.950;2024-01-07T11:02:40;97296.28;;;-0.23;100.00
55032;BME280;40928;51.076;7.950;2024-01-07T11:05:15;97301.22;;;-0.28;100.00
55032;BME280;40928;51.076;7.950;2024-01-07T11:07:46;97301.53;;;-0.32;100.00
55032;BME280;40928;51.076;7.950;2024-01-07T11:10:20;97313.00;;;-0.33;100.00
55032;BME280;40928;51.076;7.950;2024-01-07T11:12:54;97311.19;;;-0.40;100.00
55032;BME280;40928;51.076;7.950;2024-01-07T11:18:20;97310.38;;;-0.41;100.00
55032;BME280;40928;51.076;7.950;2024-01-07T11:20:47;97319.56;;;-0.45;100.00
55032;BME280;40928;51.076;7.950;2024-01-07T11:23:31;97318.44;;;-0.34;100.00
55032;BME280;40928;51.076;7.950;2024-01-07T11:26:06;97324.34;;;-0.32;100.00
55032;BME280;40928;51.076;7.950;2024-01-07T11:28:52;97325.31;;;-0.33;100.00
55032;BME280;40928;51.076;7.950;2024-01-07T11:31:20;97321.88;;;-0.17;100.00
55032;BME280;40928;51.076;7.950;2024-01-07T11:33:50;97324.00;;;-0.37;100.00
55032;BME280;40928;51.076;7.950;2024-01-07T11:36:16;97323.78;;;-0.52;100.00
55032;BME280;40928;51.076;7.950;2024-01-07T11:38:49;97330.53;;;-0.50;100.00
55032;BME280;40928;51.076;7.950;2024-01-07T11:41:16;97323.13;;;-0.63;100.00
55032;BME280;40928;51.076;7.950;2024-01-07T11:43:58;97330.81;;;-0.61;100.00
55032;BME280;40928;51.076;7.950;2024-01-07T11:46:28;97327.19;;;-0.68;100.00
55032;BME280;40928;51.076;7.950;2024-01-07T11:48:59;97321.66;;;-0.65;100.00
55032;BME280;40928;51.076;7.950;2024-01-07T11:51:28;97327.03;;;-0.75;100.00
55032;BME280;40928;51.076;7.950;2024-01-07T11:53:57;97330.75;;;-0.78;100.00
55032;BME280;40928;51.076;7.950;2024-01-07T11:56:24;97335.88;;;-0.76;100.00
55032;BME280;40928;51.076;7.950;2024-01-07T11:58:51;97344.03;;;-0.79;100.00
55032;BME280;40928;51.076;7.950;2024-01-07T12:01:18;97335.81;;;-0.84;100.00
55032;BME280;40928;51.076;7.950;2024-01-07T12:03:45;97340.06;;;-0.92;100.00
55032;BME280;40928;51.076;7.950;2024-01-07T12:06:12;97335.97;;;-0.94;100.00
55032;BME280;40928;51.076;7.950;2024-01-07T12:08:43;97332.34;;;-0.93;100.00
55032;BME280;40928;51.076;7.950;2024-01-07T12:11:11;97333.00;;;-0.91;100.00
55032;BME280;40928;51.076;7.950;2024-01-07T12:13:38;97335.13;;;-0.95;100.00
55032;BME280;40928;51.076;7.950;2024-01-07T12:16:05;97337.56;;;-1.01;100.00
55032;BME280;40928;51.076;7.950;2024-01-07T12:18:31;97338.84;;;-1.05;100.00
55032;BME280;40928;51.076;7.950;2024-01-07T12:20:58;97345.66;;;-1.21;100.00
55032;BME280;40928;51.076;7.950;2024-01-07T12:23:25;97340.13;;;-1.18;100.00
55032;BME280;40928;51.076;7.950;2024-01-07T12:25:52;97344.88;;;-1.13;100.00
55032;BME280;40928;51.076;7.950;2024-01-07T12:28:18;97350.66;;;-1.10;100.00
55032;BME280;40928;51.076;7.950;2024-01-07T12:30:45;97345.19;;;-1.16;100.00
55032;BME280;40928;51.076;7.950;2024-01-07T12:33:11;97344.06;;;-1.14;100.00
55032;BME280;40928;51.076;7.950;2024-01-07T12:35:37;97344.75;;;-1.12;100.00
55032;BME280;40928;51.076;7.950;2024-01-07T12:38:04;97354.19;;;-1.19;100.00
55032;BME280;40928;51.076;7.950;2024-01-07T12:40:30;97356.63;;;-1.26;100.00
55032;BME280;40928;51.076;7.950;2024-01-07T12:42:56;97357.78;;;-1.20;99.58
55032;BME280;40928;51.076;7.950;2024-01-07T12:45:22;97360.88;;;-1.51;99.59
55032;BME280;40928;51.076;7.950;2024-01-07T12:47:48;97355.94;;;-1.54;100.00
55032;BME280;40928;51.076;7.950;2024-01-07T12:50:14;97362.63;;;-1.60;100.00
55032;BME280;40928;51.076;7.950;2024-01-07T12:52:41;97354.47;;;-1.57;100.00
55032;BME280;40928;51.076;7.950;2024-01-07T12:55:07;97349.03;;;-1.63;100.00
55032;BME280;40928;51.076;7.950;2024-01-07T12:57:34;97361.31;;;-1.64;100.00
55032;BME280;40928;51.076;7.950;2024-01-07T12:59:59;97359.19;;;-1.60;100.00